Goldfield, Nevada Weather observations

Data are for observation ending at time listed.
 Day   Time    Ave.   Ave.  Ave.  Vector   Max.   Stn.    Total    Solar   Ave.  
  of    of     Air    Rel.  Wind   Wind    Wind   Baro.  Precip.   Rad.    Soil  
Year   Day     Temp.  Hum.  Speed  Dir.    Gust   Pres.                    Temp. 
2014   (PST)    F      %     mph   deg.    mph     mb.     in.     W/m2     F   
------------------------------------------------------------------------------
 238    7:00   64.4    34    9.2   316     12.3   829.8    0.00     290    70.6
 238    7:10   64.9    33   10.4   316     14.3   829.9    0.00     347    70.5
 238    7:20   65.7    32   10.3   321     14.9   829.9    0.00     396    70.6
 238    7:30   66.1    32   10.4   321     14.9   829.9    0.00     432    70.6
 238    7:40   66.2    31   11.8   315     16.1   829.9    0.00     467    70.6
 238    7:50   66.8    31   10.4   320     16.3   830.0    0.00     497    70.7
 238    8:00   67.1    31   10.2   319     13.4   830.0    0.00     530    70.8
 238    8:10   67.3    30   12.3   314     17.2   830.0    0.00     562    71.0
 238    8:20   68.7    29   11.9   306     19.6   830.1    0.00     595    71.2
 238    8:30   68.8    28   11.6   308     16.4   830.1    0.00     629    71.3
 238    8:40   68.1    29   11.1   312     18.6   830.2    0.00     658    71.5
 238    8:50   68.9    29   10.2   306     16.0   830.3    0.00     682    71.7
 238    9:00   69.7    28    9.2   310     16.3   830.4    0.00     709    71.9
 238    9:10   69.7    28   10.6   312     16.4   830.4    0.00     732    72.2
 238    9:20   70.3    27   10.6   302     17.3   830.5    0.00     754    72.5
 238    9:30   70.6    26    8.7   318     16.1   830.6    0.00     786    72.7
 238    9:40   70.8    26    6.9   320     17.5   830.6    0.00     833    73.1
 238    9:50   72.0    25    8.8   305     16.6   830.6    0.00     869    73.4
 238   10:00   72.0    25    6.3   322     17.2   830.6    0.00     886    73.7
 238   10:10   71.8    25    7.9   305     21.0   830.5    0.00     627    74.2
 238   10:20   72.6    24    6.7   336     13.1   830.5    0.00     904    74.6
 238   10:30   72.6    24    7.2   334     12.1   830.5    0.00     945    75.1
 238   10:40   72.6    24    8.1   321     13.7   830.4    0.00     845    75.5
 238   10:50   72.9    23    6.3   324     14.0   830.3    0.00     911    76.1
 238   11:00   73.1    23    6.3   329     14.1   830.2    0.00     921    76.6
 238   11:10   74.6    22    4.9   326     11.0   830.1    0.00     928    77.2
 238   11:20   74.7    21    7.1   318     13.8   830.1    0.00     935    77.6
 238   11:30   74.9    20   10.4   329     17.6   830.1    0.00     943    78.1
 238   11:40   74.4    20    7.2   334     13.4   830.0    0.00     947    78.4
 238   11:50   75.3    20    4.9   282     12.1   829.9    0.00     950    78.8
 238   12:00   76.3    19    7.5   328     13.8   829.8    0.00     948    79.3
 238   12:10   75.7    20    8.0   325     16.5   829.7    0.00     947    79.7
 238   12:20   76.6    19    3.9   339     13.1   829.7    0.00     956    80.0
 238   12:30   77.2    19    4.4   351      8.7   829.6    0.00     965    80.5
 238   12:40   78.0    19    6.8   267     14.9   829.6    0.00     988    80.9
 238   12:50   77.8    19    7.7   293     18.4   829.4    0.00    1011    81.3
 238   13:00   79.1    18    6.8   312     16.2   829.4    0.00     794    81.7
 238   13:10   76.3    20    5.6   321     14.8   829.3    0.00     669    81.8
 238   13:20   78.2    18    4.7   300     10.2   829.2    0.00     843    81.9
 238   13:30   79.8    16    9.4   278     20.7   829.2    0.00     948    81.9
 238   13:40   79.9    15    6.6   287     15.9   829.1    0.00     631    81.9
 238   13:50   79.8    15    5.5   287     14.0   829.0    0.00     896    81.8
 238   14:00   80.6    14    5.9   287     15.8   828.9    0.00     808    81.7
 238   14:10   80.1    13    9.3   287     15.7   828.8    0.00     704    81.8
 238   14:20   80.2    14    7.3   304     18.6   828.7    0.00     823    81.5
 238   14:30   79.5    12   12.5   312     18.9   828.6    0.00     835    81.4
 238   14:40   79.5    13    8.3   309     17.0   828.7    0.00     804    81.4
 238   14:50   81.2    12    9.0   278     19.3   828.7    0.00     763    81.2
 238   15:00   80.6    13    3.8   279     10.6   828.7    0.00     763    81.2
 238   15:10   80.9    12    4.3   255      9.8   828.6    0.00     741    81.4
 238   15:20   80.6    14    6.1   281     12.3   828.5    0.00     674    81.4
 238   15:30   80.7    14    7.7   244     14.9   828.5    0.00     648    81.6
 238   15:40   81.0    13    7.4   292     14.0   828.4    0.00     628    81.7
 238   15:50   80.4    14    6.2   302     12.6   828.4    0.00     603    81.9
 238   16:00   81.9    13    8.1   289     14.1   828.4    0.00     578    81.9
 238   16:10   82.1    12    7.3   278     15.2   828.4    0.00     501    82.0
 238   16:20   82.1    13    8.7   297     14.4   828.4    0.00     454    82.0
 238   16:30   80.3    14    9.8   312     18.0   828.4    0.00     414    82.1
 238   16:40   80.5    14    9.6   302     15.7   828.5    0.00     339    82.1
 238   16:50   78.9    16   10.3   318     18.8   828.5    0.00     199    82.0
 238   17:00   78.1    18    7.7   337     17.6   828.5    0.00     239    82.1
 238   17:10   76.2    20    9.2    10     16.4   828.6    0.00     180    82.0
 238   17:20   75.8    20    8.3     1     14.1   828.6    0.00      86    81.9
 238   17:30   74.9    21    8.4   356     14.6   829.0    0.00     128    82.0
 238   17:40   74.7    22    9.3   353     16.1   829.0    0.00     108    81.7
 238   17:50   73.4    22    9.1     0     15.9   829.1    0.00      56    81.7
 238   18:00   72.8    23    6.8     0     12.1   829.2    0.00      37    81.5
 238   18:10   72.4    23    5.7     5      9.9   829.2    0.00      24    81.3
 238   18:20   72.1    24    5.1    10     10.8   829.3    0.00      16    81.3
 238   18:30   71.6    24    4.3    10      8.3   829.4    0.00       7    81.1
 238   18:40   71.0    24    3.0    14      6.2   829.5    0.00       3    80.8
 238   18:50   70.5    25    3.3    22      7.9   829.6    0.00       0    80.5
 238   19:00   70.1    25    1.9   357      3.6   829.8    0.00       0    80.4
 238   19:10   69.8    25    1.4   281      3.1   829.9    0.00       0    80.3
 238   19:20   68.8    26    2.0   265      3.4   830.0    0.00       0    80.1
 238   19:30   68.5    26    2.3   262      3.6   830.1    0.00       0    79.7
 238   19:40   68.4    26    1.6   202      2.8   830.4    0.00       0    79.7
 238   19:50   67.9    27    1.2   179      2.9   830.6    0.00       0    79.5
 238   20:00   66.8    27    1.6   202      2.4   830.7    0.00       0    79.3
 238   20:10   65.8    28    2.3   208      2.9   830.8    0.00       0    79.1
 238   20:20   65.4    29    1.3   186      2.3   830.9    0.00       0    78.9
 238   20:30   65.2    29    1.4    19      4.2   831.1    0.00       0    78.7
 238   20:40   64.9    29    1.4   347      3.1   831.2    0.00       0    78.6
 238   20:50   64.8    29    1.8   270      3.1   831.4    0.00       0    78.3
 238   21:00   64.1    30    2.8   250      4.4   831.5    0.00       0    78.1
 238   21:10   63.5    31    3.1   284      4.3   831.6    0.00       0    77.9
 238   21:20   62.7    32    3.4   285      4.4   831.6    0.00       0    77.7
 238   21:30   62.4    32    3.4   291      4.7   831.7    0.00       0    77.6
 238   21:40   62.2    33    3.9   298      5.0   831.8    0.00       0    77.3
 238   21:50   62.0    33    3.5   291      4.5   831.9    0.00       0    77.2
 238   22:00   61.6    34    3.4   273      5.3   831.9    0.00       0    76.9
 238   22:10   61.4    34    4.4   277      5.9   832.0    0.00       0    76.7
 238   22:20   61.1    35    4.8   279      6.1   832.0    0.00       0    76.6
 238   22:30   61.0    35    3.1   276      4.5   832.0    0.00       0    76.4
 238   22:40   61.1    35    1.7   271      3.3   832.1    0.00       0    76.2
 238   22:50   61.3    35    1.9   237      2.9   832.1    0.00       0    76.0
 238   23:00   60.9    35    1.3   144      2.0   832.2    0.00       0    75.9
 238   23:10   60.1    36    3.0   105      4.0   832.2    0.00       0    75.5
 238   23:20   59.7    36    1.5   122      3.4   832.2    0.00       0    75.7
 238   23:30   59.4    36    1.0   116      1.8   832.3    0.00       0    75.4
 238   23:40   58.8    37    2.4   120      3.8   832.2    0.00       0    75.2
 238   23:50   58.7    37    3.2   126      4.9   832.2    0.00       0    75.0
 239    0:00   58.5    37    3.9   119      5.0   832.3    0.00       0    74.9
 239    0:10   59.4    36    3.0   138      4.5   832.3    0.00       0    74.7
 239    0:20   59.8    35    1.6   129      2.8   832.3    0.00       0    74.7
 239    0:30   58.8    37    1.8   208      2.3   832.3    0.00       0    74.4
 239    0:40   59.4    36    1.9   231      2.6   832.3    0.00       0    74.0
 239    0:50   59.8    36    0.3   125      1.4   832.4    0.00       0    73.9
 239    1:00   59.5    36    2.0   124      3.5   832.3    0.00       0    73.9
 239    1:10   59.9    35    2.0   133      3.4   832.3    0.00       0    73.8
 239    1:20   59.9    36    1.3   192      3.1   832.3    0.00       0    73.6
 239    1:30   59.3    37    2.6   233      2.9   832.4    0.00       0    73.5
 239    1:40   59.8    36    2.1   238      2.5   832.4    0.00       0    73.4
 239    1:50   60.8    35    0.8   259      1.5   832.4    0.00       0    73.3
 239    2:00   60.1    36    0.3   205      1.5   832.4    0.00       0    73.1
 239    2:10   59.8    37    0.2   305      1.0   832.4    0.00       0    73.1
 239    2:20   59.0    38    0.7   263      2.0   832.4    0.00       0    72.9
 239    2:30   58.1    38    2.2   264      3.0   832.4    0.00       0    72.8
 239    2:40   57.8    38    1.4   292      2.9   832.4    0.00       0    72.6
 239    2:50   57.3    39    0.6   172      2.0   832.5    0.00       0    72.4
 239    3:00   56.6    40    1.4   212      2.0   832.5    0.00       0    72.5
 239    3:10   56.3    40    0.0   146      0.6   832.5    0.00       0    72.4
 239    3:20   56.4    39    1.2   273      2.8   832.5    0.00       0    72.2
 239    3:30   56.3    39    2.2   266      3.1   832.5    0.00       0    72.1
 239    3:40   56.0    40    0.7   309      2.3   832.6    0.00       0    71.9
 239    3:50   55.5    40    1.6   324      3.6   832.7    0.00       0    71.8
 239    4:00   55.7    40    1.2   318      2.9   832.8    0.00       0    71.8
 239    4:10   55.7    41    1.9    28      6.1   832.8    0.00       0    71.6
 239    4:20   57.5    40    1.5    90      2.9   832.9    0.00       0    71.4
 239    4:30   56.5    41    2.1   100      3.2   832.9    0.00       0    71.3
 239    4:40   55.7    42    1.6   104      3.1   833.0    0.00       0    71.1
 239    4:50   54.6    43    3.3   108      4.5   833.0    0.00       0    71.0
 239    5:00   53.4    45    3.3   107      4.2   833.1    0.00       0    71.0
 239    5:10   53.4    45    1.8    90      2.7   833.3    0.00       0    70.9
 239    5:20   54.2    44    2.5   117      3.5   833.4    0.00       3    70.6
 239    5:30   54.8    44    0.9    48      2.6   833.5    0.00       9    70.3
 239    5:40   54.6    45    1.7   194      2.6   833.6    0.00      35    70.4
 239    5:50   56.7    43    0.7   178      2.3   833.7    0.00      69    70.2
 239    6:00   60.0    38    0.2   307      1.1   833.8    0.00     102    70.1
 239    6:10   61.9    36    0.1   258      1.2   833.8    0.00     135    69.9
 239    6:20   63.0    36    3.0   298      4.3   833.8    0.00     174    70.0
 239    6:30   63.9    35    2.7   283      4.0   833.8    0.00     205    70.0
 239    6:40   64.9    34    3.3   309      5.2   833.8    0.00     248    69.7
 239    6:50   64.0    35    4.0   309      5.4   833.8    0.00     288    69.9

Return to Goldfield, Nevada graphs page.


Western Regional Climate Center,wrcc@dri.edu